Terminal Aerodrome Forecast
Issued by NWS

Home | Current Version | Previous Version | Text Only | Print | Product List | Glossary On
Versions: 1 2 3 4 5 6 7 8 9 10 11 12 13 14 15 16 17
000
FTPA31 PHFO 191129
TAFMDY
TAF
PMDY 191129Z 1912/2012 32010KT P6SM SCT040 BKN090
     FM192100 34010G16KT P6SM SCT040
     FM200500 01010G16KT P6SM SCT040=

USA.gov is the U.S. government's official web portal to all federal, state and local government web resources and services.